« Back
NWS Peachtree City, Ga » Text Product » ATL Terminal Aerodrome Forecast


Printer-friendly Version
Current Version              Previous Versions:   1  2  3  4  5  6  7  8  9  

Terminal Aerodrome Forecast

439
FTUS42 KFFC 260333 AAB
TAFATL
TAF AMD
KATL 260333Z 2604/2706 33009KT P6SM BKN090
     FM260600 32009KT P6SM -RA OVC040
     FM260900 31008KT 6SM -RA BR OVC020
     FM261200 30007KT 6SM BR OVC025
     FM261500 30008KT P6SM SCT035
     FM262100 26007KT P6SM SCT250
     FM270300 23005KT P6SM SCT050=

USA.gov is the U.S. government's official web portal to all federal, state and local government web resources and services.